»·PEaware :: DABXX RJBB-ZSPD

DABXX :: RJBB-ZSPD

FLIGHT INFORMATION

Flight Status: Arrived
Operator: Unknown
More flights by this operator :: More flights under this callsign
Pilot: Kenny J. (11300)
Aircraft: BOEING 737-300
(B733)
More flights by this aircraft type
Origin: RJBB Kansai Intl
Japan
Destination: ZSPD Pudong
China
More flights between these airports :: More routes between these airports
Route: HABAR Y60 ISAKY Z20 POTET A593 DUMET
File this flight plan on PilotEdge
Remarks:
Altitude:
(Current/Filed)
29,000ft
Speed:
(Current/Filed)
445kts
Departed: 11-May-16 07:37 AM
Arrived: 11-May-16 09:40 AM
Distance/Time
Traveled:
706nm/2:03
Distance/Time
To Go:
Arrived

Flight Plot

Page will automatically refresh every two minutes.


Map Options




Map Legend


Flown Route
Filed Route
Departure Airport
Arrival Airport
Navaid (VOR, NDB)
Fix

Horizontal Profiles

Position Reports

Time Latitude Longitude Heading Altitude Ground
Speed
11-May-16 07:19 34.428684 135.206365 50 33ft 0kts
11-May-16 07:20 34.428684 135.206365 50 33ft 0kts
11-May-16 07:21 34.428684 135.206365 50 33ft 0kts
11-May-16 07:22 34.428684 135.206365 50 33ft 0kts
11-May-16 07:23 34.439937 135.223134 360 33ft 0kts
11-May-16 07:24 34.428688 135.206370 50 33ft 0kts
11-May-16 07:25 34.428688 135.206370 50 33ft 0kts
11-May-16 07:26 34.428688 135.206370 50 33ft 0kts
11-May-16 07:27 34.428688 135.206370 50 33ft 0kts
11-May-16 07:28 34.428688 135.206370 50 33ft 0kts
11-May-16 07:29 34.428563 135.206187 50 33ft 0kts
11-May-16 07:30 34.428563 135.206187 50 33ft 0kts
11-May-16 07:31 34.428563 135.206187 50 33ft 0kts
11-May-16 07:32 34.428563 135.206187 50 33ft 0kts
11-May-16 07:33 34.428829 135.206575 50 33ft 0kts
11-May-16 07:34 34.428829 135.206575 50 33ft 0kts
11-May-16 07:35 34.428829 135.206575 50 33ft 0kts
11-May-16 07:36 34.434706 135.215257 50 33ft 137kts
11-May-16 07:37 34.476439 135.240638 334 1503ft 218kts
11-May-16 07:38 34.511262 135.177556 310 3191ft 259kts
11-May-16 07:39 34.561831 135.129569 324 5452ft 260kts
11-May-16 07:40 34.588470 135.081429 287 6993ft 266kts
11-May-16 07:41 34.605638 135.013806 284 8652ft 272kts
11-May-16 07:42 34.585485 134.943339 240 10220ft 280kts
11-May-16 07:43 34.548885 134.866435 239 11220ft 317kts
11-May-16 07:44 34.520935 134.759602 257 12096ft 361kts
11-May-16 07:45 34.499106 134.644462 257 13925ft 371kts
11-May-16 07:46 34.477227 134.530525 257 15535ft 379kts
11-May-16 07:47 34.456200 134.421661 257 16945ft 387kts
11-May-16 07:48 34.440667 134.341555 256 17913ft 393kts
11-May-16 07:49 34.425241 134.259192 256 18854ft 399kts
11-May-16 07:50 34.412807 134.188345 258 19617ft 403kts
11-May-16 07:51 34.394924 134.075253 259 20796ft 409kts
11-May-16 07:52 34.380767 133.984763 259 21674ft 413kts
11-May-16 07:53 34.361875 133.864591 259 22736ft 419kts
11-May-16 07:54 34.340815 133.731549 259 23805ft 426kts
11-May-16 07:55 34.318617 133.592531 258 24813ft 432kts
11-May-16 07:56 34.287054 133.470897 251 25612ft 438kts
11-May-16 07:57 34.254648 133.357240 251 26314ft 444kts
11-May-16 07:58 34.225580 133.254347 250 27057ft 444kts
11-May-16 07:59 34.193925 133.144172 250 27913ft 442kts
11-May-16 08:00 34.158266 133.020808 250 28725ft 440kts
11-May-16 08:01 34.122285 132.896865 250 29059ft 432kts
11-May-16 08:02 34.086496 132.774116 250 29054ft 433kts
11-May-16 08:03 34.051372 132.654149 250 29055ft 433kts
11-May-16 08:04 34.016320 132.534921 250 29055ft 433kts
11-May-16 08:05 33.981249 132.416114 250 29055ft 433kts
11-May-16 08:06 33.946432 132.297716 250 29054ft 433kts
11-May-16 08:07 33.909897 132.172651 251 29055ft 433kts
11-May-16 08:08 33.879841 132.047997 255 29055ft 433kts
11-May-16 08:09 33.850995 131.917875 255 29063ft 432kts
11-May-16 08:10 33.820571 131.781158 255 29064ft 432kts
11-May-16 08:11 33.790285 131.645824 255 29052ft 432kts
11-May-16 08:12 33.759350 131.508362 255 29032ft 432kts
11-May-16 08:13 33.728898 131.373806 255 29029ft 432kts
11-May-16 08:14 33.701852 131.253078 254 29030ft 432kts
11-May-16 08:15 33.672857 131.126006 254 29029ft 432kts
11-May-16 08:16 33.642756 130.995033 254 29029ft 432kts
11-May-16 08:17 33.612104 130.862379 254 29029ft 432kts
11-May-16 08:18 33.581059 130.728733 254 29036ft 432kts
11-May-16 08:19 33.553026 130.608660 254 29050ft 431kts
11-May-16 08:20 33.526025 130.493557 254 29056ft 431kts
11-May-16 08:21 33.491725 130.378717 245 29059ft 431kts
11-May-16 08:22 33.451824 130.274737 245 29054ft 431kts
11-May-16 08:23 33.404688 130.153679 244 29039ft 431kts
11-May-16 08:24 33.355349 130.027704 244 29029ft 430kts
11-May-16 08:25 33.305140 129.899986 244 29030ft 431kts
11-May-16 08:26 33.254578 129.771850 244 29030ft 431kts
11-May-16 08:27 33.204192 129.644305 245 29029ft 431kts
11-May-16 08:28 33.157657 129.513162 248 29030ft 430kts
11-May-16 08:29 33.112433 129.381224 248 29030ft 430kts
11-May-16 08:30 33.069588 129.255385 247 29029ft 430kts
11-May-16 08:31 33.024866 129.125716 247 29029ft 430kts
11-May-16 08:32 32.979607 128.995179 247 29029ft 430kts
11-May-16 08:33 32.933668 128.863220 247 29030ft 430kts
11-May-16 08:34 32.889508 128.736872 247 29029ft 430kts
11-May-16 08:35 32.844002 128.607171 247 29029ft 430kts
11-May-16 08:36 32.797505 128.475179 247 29029ft 430kts
11-May-16 08:37 32.752260 128.347247 246 29031ft 430kts
11-May-16 08:38 32.707875 128.219941 247 29048ft 432kts
11-May-16 08:39 32.661826 128.089515 246 29057ft 432kts
11-May-16 08:40 32.614494 127.957227 246 29056ft 432kts
11-May-16 08:41 32.567651 127.826844 246 29056ft 432kts
11-May-16 08:42 32.520516 127.696159 246 29056ft 432kts
11-May-16 08:43 32.473198 127.565482 246 29057ft 432kts
11-May-16 08:44 32.425565 127.434442 246 29057ft 432kts
11-May-16 08:45 32.387173 127.329015 246 29056ft 432kts
11-May-16 08:46 32.339496 127.197646 246 29056ft 432kts
11-May-16 08:47 32.291528 127.067100 246 29056ft 432kts
11-May-16 08:48 32.256665 126.932717 255 29056ft 432kts
11-May-16 08:49 32.226553 126.795716 255 29056ft 432kts
11-May-16 08:50 32.196054 126.658245 255 29057ft 432kts
11-May-16 08:51 32.166088 126.520931 255 29057ft 432kts
11-May-16 08:52 32.136202 126.383278 255 29057ft 432kts
11-May-16 08:53 32.106787 126.246622 255 29056ft 432kts
11-May-16 08:54 32.076975 126.110610 255 29056ft 432kts
11-May-16 08:55 32.046792 125.973270 255 29057ft 432kts
11-May-16 08:56 32.017088 125.835560 255 29057ft 432kts
11-May-16 08:57 31.987380 125.698875 255 29057ft 432kts
11-May-16 08:58 31.957632 125.562341 255 29057ft 432kts
11-May-16 08:59 31.927599 125.425148 255 29057ft 432kts
11-May-16 09:00 31.897887 125.288792 255 29056ft 432kts
11-May-16 09:01 31.867696 125.151690 255 29057ft 432kts
11-May-16 09:02 31.837421 125.015645 255 29056ft 432kts
11-May-16 09:03 31.807297 124.879362 255 29056ft 431kts
11-May-16 09:04 31.777126 124.742801 255 29056ft 431kts
11-May-16 09:05 31.746955 124.606984 255 29056ft 431kts
11-May-16 09:06 31.716262 124.469562 255 29035ft 432kts
11-May-16 09:07 31.686702 124.337857 255 28990ft 433kts
11-May-16 09:08 31.656342 124.201474 255 28975ft 433kts
11-May-16 09:09 31.625724 124.066527 255 28976ft 433kts
11-May-16 09:10 31.596383 123.931813 256 28974ft 432kts
11-May-16 09:11 31.567104 123.796255 255 28976ft 432kts
11-May-16 09:12 31.536940 123.659251 255 28975ft 432kts
11-May-16 09:13 31.506710 123.522720 255 28975ft 432kts
11-May-16 09:14 31.478395 123.385688 257 28975ft 432kts
11-May-16 09:15 31.454100 123.255597 257 28975ft 432kts
11-May-16 09:16 31.428060 123.118554 257 28627ft 430kts
11-May-16 09:17 31.401706 122.981056 257 25658ft 428kts
11-May-16 09:18 31.376219 122.848831 257 23492ft 409kts
11-May-16 09:19 31.351385 122.720794 257 21334ft 408kts
11-May-16 09:20 31.327311 122.593862 257 19199ft 391kts
11-May-16 09:21 31.304426 122.473083 257 17175ft 375kts
11-May-16 09:22 31.282202 122.356414 257 15222ft 361kts
11-May-16 09:23 31.261451 122.246307 257 13383ft 360kts
11-May-16 09:24 31.240807 122.135352 257 11524ft 346kts
11-May-16 09:25 31.220938 122.031110 257 10818ft 293kts
11-May-16 09:26 31.204629 121.946935 257 10222ft 274kts
11-May-16 09:27 31.216090 121.866993 311 9316ft 240kts
11-May-16 09:28 31.273517 121.838275 4 8198ft 237kts
11-May-16 09:29 31.338304 121.842952 4 6857ft 231kts
11-May-16 09:30 31.399598 121.831822 339 5780ft 223kts
11-May-16 09:31 31.435303 121.783612 258 5123ft 221kts
11-May-16 09:32 31.401067 121.730193 188 3800ft 210kts
11-May-16 09:33 31.346592 121.720237 184 2897ft 185kts
11-May-16 09:34 31.297575 121.732937 160 2917ft 181kts
11-May-16 09:35 31.253601 121.750858 161 1938ft 150kts
11-May-16 09:36 31.214693 121.765606 162 1153ft 147kts
11-May-16 09:37 31.176139 121.780236 162 368ft 143kts
11-May-16 09:38 31.146954 121.791304 162 20ft 89kts
11-May-16 09:39 31.138140 121.795228 131 20ft 0kts
11-May-16 09:40 31.138140 121.795228 131 20ft 0kts
11-May-16 09:41 31.138140 121.795228 131 20ft 0kts

Navigation Log

Ident Type
Flight plan parsing failed, navigation log unavailable